createdAt,value
2023-08-26T00:02:16.486Z,2.05
2023-08-26T00:04:46.544Z,2.40
2023-08-26T00:07:19.741Z,2.28
2023-08-26T00:09:47.675Z,2.35
2023-08-26T00:12:15.604Z,2.60
2023-08-26T00:14:49.213Z,2.58
2023-08-26T00:17:19.471Z,2.38
2023-08-26T00:19:47.696Z,2.65
2023-08-26T00:22:18.774Z,2.20
2023-08-26T00:24:46.478Z,2.00
2023-08-26T00:27:14.398Z,2.30
2023-08-26T00:29:44.956Z,1.95
2023-08-26T00:32:12.595Z,2.17
2023-08-26T00:34:40.272Z,2.70
2023-08-26T00:37:08.204Z,1.95
2023-08-26T00:39:37.232Z,2.28
2023-08-26T00:42:05.175Z,1.48
2023-08-26T00:44:33.440Z,2.08
2023-08-26T00:47:01.260Z,2.25
2023-08-26T00:49:30.307Z,1.70
2023-08-26T00:51:58.111Z,2.00
2023-08-26T00:54:25.773Z,2.25
2023-08-26T00:56:54.825Z,1.85
2023-08-26T00:59:22.653Z,3.33
2023-08-26T01:01:50.387Z,1.80
2023-08-26T01:04:18.241Z,2.00
2023-08-26T01:06:45.907Z,2.25
2023-08-26T01:09:13.901Z,1.75
2023-08-26T01:11:42.818Z,1.67
2023-08-26T01:14:15.703Z,2.00
2023-08-26T01:16:43.388Z,2.03
2023-08-26T01:19:15.944Z,1.75
2023-08-26T01:21:46.825Z,2.38
2023-08-26T01:24:18.660Z,1.85
2023-08-26T01:26:46.304Z,3.40
2023-08-26T01:29:16.339Z,2.13
2023-08-26T01:31:44.944Z,2.00
2023-08-26T01:34:13.699Z,1.60
2023-08-26T01:36:43.990Z,1.83
2023-08-26T01:39:13.928Z,2.00
2023-08-26T01:41:44.292Z,2.00
2023-08-26T01:44:13.004Z,1.33
2023-08-26T01:46:41.294Z,2.13
2023-08-26T01:49:09.171Z,1.77
2023-08-26T01:51:39.679Z,2.42
2023-08-26T01:54:09.613Z,2.25
2023-08-26T01:56:37.849Z,1.70
2023-08-26T01:59:07.042Z,2.00
2023-08-26T02:01:35.086Z,2.38
2023-08-26T02:04:03.067Z,2.38
2023-08-26T02:06:30.854Z,2.50
2023-08-26T02:08:58.457Z,2.10
2023-08-26T02:11:26.198Z,1.67
2023-08-26T02:13:53.913Z,1.83
2023-08-26T02:16:22.901Z,2.90
2023-08-26T02:18:50.648Z,2.13
2023-08-26T02:21:18.306Z,2.40
2023-08-26T02:23:46.252Z,2.50
2023-08-26T02:26:13.925Z,2.17
2023-08-26T02:28:41.610Z,2.17
2023-08-26T02:31:09.247Z,2.50
2023-08-26T02:33:38.257Z,2.30
2023-08-26T02:36:06.326Z,2.42
2023-08-26T02:38:34.046Z,1.92
2023-08-26T02:41:03.219Z,2.10
2023-08-26T02:43:31.036Z,2.50
2023-08-26T02:45:59.747Z,2.40
2023-08-26T02:48:28.181Z,2.65
2023-08-26T02:51:00.850Z,2.53
2023-08-26T02:53:29.433Z,3.00
2023-08-26T02:55:57.302Z,2.88
2023-08-26T02:58:25.251Z,3.50
2023-08-26T03:00:54.148Z,3.15
2023-08-26T03:03:22.286Z,3.42
2023-08-26T03:05:50.055Z,3.58
2023-08-26T03:08:19.045Z,3.05
2023-08-26T03:10:56.826Z,3.40
2023-08-26T03:13:24.650Z,3.90
2023-08-26T03:15:52.359Z,3.38
2023-08-26T03:18:20.173Z,3.08
2023-08-26T03:20:47.829Z,2.83
2023-08-26T03:23:15.651Z,3.05
2023-08-26T03:25:44.868Z,3.40
2023-08-26T03:28:12.888Z,3.15
2023-08-26T03:30:40.615Z,2.72
2023-08-26T03:33:08.304Z,3.40
2023-08-26T03:35:39.937Z,3.67
2023-08-26T03:38:07.568Z,3.88
2023-08-26T03:40:35.538Z,3.10
2023-08-26T03:43:05.355Z,2.97
2023-08-26T03:45:33.185Z,3.10
2023-08-26T03:48:00.868Z,3.22
2023-08-26T03:50:28.540Z,3.67
2023-08-26T03:52:56.201Z,2.83
2023-08-26T03:55:23.877Z,3.03
2023-08-26T03:57:51.556Z,2.75
2023-08-26T04:00:20.567Z,2.70
2023-08-26T04:02:48.466Z,3.10
2023-08-26T04:05:17.991Z,3.20
2023-08-26T04:07:46.180Z,3.53
2023-08-26T04:10:16.792Z,2.72
2023-08-26T04:12:44.449Z,3.35
2023-08-26T04:15:12.080Z,2.95
2023-08-26T04:17:42.531Z,3.35
2023-08-26T04:20:11.245Z,3.05
2023-08-26T04:22:38.909Z,2.97
2023-08-26T04:25:07.906Z,3.00
2023-08-26T04:27:35.612Z,2.63
2023-08-26T04:30:03.591Z,2.55
2023-08-26T04:32:31.232Z,2.40
2023-08-26T04:35:01.417Z,2.65
2023-08-26T04:37:31.509Z,2.50
2023-08-26T04:39:59.281Z,2.75
2023-08-26T04:42:27.264Z,2.58
2023-08-26T04:44:54.924Z,2.33
2023-08-26T04:47:23.482Z,2.42
2023-08-26T04:49:51.423Z,2.22
2023-08-26T04:52:20.417Z,2.60
2023-08-26T04:54:48.189Z,2.25
2023-08-26T04:57:15.958Z,2.58
2023-08-26T04:59:46.797Z,2.25
2023-08-26T05:02:14.569Z,2.20
2023-08-26T05:04:42.393Z,2.67
2023-08-26T05:07:09.989Z,2.90
2023-08-26T05:09:39.010Z,2.78
2023-08-26T05:12:07.285Z,2.30
2023-08-26T05:14:34.921Z,2.20
2023-08-26T05:17:02.590Z,3.03
2023-08-26T05:19:30.405Z,2.88
2023-08-26T05:21:58.999Z,2.80
2023-08-26T05:24:30.930Z,2.10
2023-08-26T05:27:00.330Z,2.55
2023-08-26T05:29:28.001Z,2.28
2023-08-26T05:31:55.615Z,2.17
2023-08-26T05:34:23.344Z,2.00
2023-08-26T05:36:50.993Z,2.60
2023-08-26T05:39:18.686Z,2.83
2023-08-26T05:41:46.353Z,2.83
2023-08-26T05:44:15.604Z,2.75
2023-08-26T05:46:43.271Z,2.30
2023-08-26T05:49:11.011Z,2.00
2023-08-26T05:51:38.794Z,1.90
2023-08-26T05:54:08.900Z,2.38
2023-08-26T05:56:36.586Z,1.90
2023-08-26T05:59:04.324Z,2.55
2023-08-26T06:01:33.433Z,2.10
2023-08-26T06:04:01.816Z,2.40
2023-08-26T06:06:30.251Z,1.83
2023-08-26T06:08:58.219Z,2.03
2023-08-26T06:11:37.604Z,2.15
2023-08-26T06:14:05.494Z,2.15
2023-08-26T06:16:34.606Z,2.20
2023-08-26T06:19:02.292Z,1.70
2023-08-26T06:21:33.717Z,2.00
2023-08-26T06:24:01.390Z,1.70
2023-08-26T06:26:29.043Z,1.70
2023-08-26T06:28:56.849Z,1.92
2023-08-26T06:31:24.562Z,1.55
2023-08-26T06:33:53.605Z,1.77
2023-08-26T06:36:21.459Z,1.80
2023-08-26T06:38:49.102Z,1.75
2023-08-26T06:41:16.738Z,2.47
2023-08-26T06:43:44.482Z,1.60
2023-08-26T06:46:12.567Z,1.50
2023-08-26T06:48:40.326Z,1.58
2023-08-26T06:51:09.392Z,1.65
2023-08-26T06:53:37.040Z,1.75
2023-08-26T06:56:04.774Z,1.85
2023-08-26T06:58:32.580Z,1.55
2023-08-26T07:01:00.504Z,1.67
2023-08-26T07:03:28.318Z,1.45
2023-08-26T07:05:56.186Z,1.60
2023-08-26T07:08:25.230Z,1.58
2023-08-26T07:10:53.045Z,1.27
2023-08-26T07:13:20.942Z,1.30
2023-08-26T07:15:49.209Z,1.33
2023-08-26T07:18:19.817Z,1.40
2023-08-26T07:20:48.288Z,1.40
2023-08-26T07:23:16.095Z,1.48
2023-08-26T07:25:45.695Z,1.85
2023-08-26T07:28:13.755Z,1.40
2023-08-26T07:30:41.733Z,1.75
2023-08-26T07:33:09.442Z,1.52
2023-08-26T07:35:37.199Z,2.10
2023-08-26T07:38:04.899Z,1.58
2023-08-26T07:40:32.602Z,1.58
2023-08-26T07:43:05.651Z,1.98
2023-08-26T07:45:33.258Z,1.80
2023-08-26T07:50:31.545Z,1.80
2023-08-26T07:52:59.466Z,1.42
2023-08-26T07:55:27.605Z,1.48
2023-08-26T07:57:56.612Z,1.75
2023-08-26T08:00:25.665Z,1.40
2023-08-26T08:02:53.959Z,2.15
2023-08-26T08:05:21.600Z,1.50
2023-08-26T08:07:49.465Z,1.63
2023-08-26T08:10:17.618Z,1.48
2023-08-26T08:12:46.810Z,1.40
2023-08-26T08:15:14.469Z,1.40
2023-08-26T08:17:43.876Z,1.90
2023-08-26T08:20:20.688Z,1.48
2023-08-26T08:22:48.828Z,1.23
2023-08-26T08:25:16.757Z,1.55
2023-08-26T08:27:44.411Z,1.67
2023-08-26T08:30:19.425Z,1.42
2023-08-26T08:35:16.131Z,1.70
2023-08-26T08:37:44.215Z,1.60
2023-08-26T08:40:12.498Z,1.38
2023-08-26T08:42:41.999Z,1.40
2023-08-26T08:45:11.735Z,1.65
2023-08-26T08:47:40.654Z,1.33
2023-08-26T08:50:09.444Z,1.38
2023-08-26T08:52:38.554Z,1.50
2023-08-26T08:55:07.082Z,1.40
2023-08-26T08:57:36.815Z,1.92
2023-08-26T09:00:05.512Z,1.80
2023-08-26T09:02:33.503Z,1.55
2023-08-26T09:05:01.203Z,1.58
2023-08-26T09:07:29.503Z,1.63
2023-08-26T09:10:02.595Z,1.35
2023-08-26T09:12:31.629Z,1.75
2023-08-26T09:14:59.351Z,1.75
2023-08-26T09:17:27.069Z,1.30
2023-08-26T09:19:55.486Z,1.52
2023-08-26T09:22:25.856Z,1.20
2023-08-26T09:24:56.956Z,1.48
2023-08-26T09:27:26.358Z,1.30
2023-08-26T09:29:54.419Z,1.35
2023-08-26T09:32:35.360Z,1.52
2023-08-26T09:35:10.261Z,1.90
2023-08-26T09:40:08.147Z,1.60
2023-08-26T09:42:37.565Z,1.20
2023-08-26T09:45:08.171Z,1.40
2023-08-26T09:47:37.645Z,1.33
2023-08-26T09:50:06.083Z,1.33
2023-08-26T09:52:42.217Z,1.30
2023-08-26T09:55:10.195Z,1.50
2023-08-26T09:57:39.501Z,1.48
2023-08-26T10:00:09.950Z,1.30
2023-08-26T10:02:39.452Z,1.38
2023-08-26T10:05:12.219Z,1.40
2023-08-26T10:07:40.676Z,1.23
2023-08-26T10:10:13.671Z,1.50
2023-08-26T10:12:43.934Z,1.50
2023-08-26T10:15:13.775Z,1.67
2023-08-26T10:17:43.045Z,1.30
2023-08-26T10:20:11.303Z,1.15
2023-08-26T10:22:39.390Z,1.05
2023-08-26T10:25:07.819Z,0.93
2023-08-26T10:27:35.835Z,0.98
2023-08-26T10:30:05.300Z,1.30
2023-08-26T10:32:33.006Z,1.15
2023-08-26T10:35:01.397Z,1.08
2023-08-26T10:37:29.807Z,1.25
2023-08-26T10:39:57.874Z,1.50
2023-08-26T10:42:25.891Z,1.20
2023-08-26T10:44:55.835Z,1.42
2023-08-26T10:47:37.712Z,1.40
2023-08-26T10:50:19.391Z,1.83
2023-08-26T10:52:47.598Z,1.35
2023-08-26T10:55:20.536Z,1.33
2023-08-26T10:58:06.913Z,0.80
2023-08-26T11:00:34.645Z,1.23
2023-08-26T11:03:10.273Z,1.00
2023-08-26T11:05:38.762Z,1.05
2023-08-26T11:08:08.006Z,0.80
2023-08-26T11:10:36.774Z,1.10
2023-08-26T11:13:06.798Z,1.05
2023-08-26T11:15:38.077Z,0.90
2023-08-26T11:18:07.747Z,0.90
2023-08-26T11:20:35.833Z,0.88
2023-08-26T11:23:04.349Z,1.45
2023-08-26T11:25:32.526Z,1.00
2023-08-26T11:28:04.011Z,0.90
2023-08-26T11:30:34.138Z,1.40
2023-08-26T11:33:02.131Z,0.80
2023-08-26T11:35:31.536Z,0.88
2023-08-26T11:37:59.341Z,1.13
2023-08-26T11:40:27.143Z,1.10
2023-08-26T11:42:54.925Z,1.02
2023-08-26T11:45:22.664Z,1.08
2023-08-26T11:47:50.402Z,0.98
2023-08-26T11:50:18.486Z,1.25
2023-08-26T11:52:47.620Z,1.10
2023-08-26T11:55:15.323Z,1.00
2023-08-26T11:57:43.261Z,0.95
2023-08-26T12:00:12.628Z,1.10
2023-08-26T12:02:40.584Z,0.93
2023-08-26T12:05:09.206Z,1.00
2023-08-26T12:07:37.126Z,1.08
2023-08-26T12:10:12.839Z,0.80
2023-08-26T12:12:40.876Z,1.10
2023-08-26T12:15:09.259Z,1.00
2023-08-26T12:17:43.897Z,1.02
2023-08-26T12:20:20.907Z,1.00
2023-08-26T12:22:49.131Z,1.08
2023-08-26T12:25:19.433Z,0.88
2023-08-26T12:27:47.332Z,0.80
2023-08-26T12:30:15.211Z,1.20
2023-08-26T12:32:42.852Z,1.20
2023-08-26T12:35:10.670Z,1.17
2023-08-26T12:37:38.396Z,0.77
2023-08-26T12:40:06.607Z,1.40
2023-08-26T12:42:35.701Z,1.20
2023-08-26T12:45:04.309Z,1.00
2023-08-26T12:47:31.961Z,1.25
2023-08-26T12:50:00.289Z,0.93
2023-08-26T12:52:28.338Z,1.13
2023-08-26T12:54:57.871Z,1.20
2023-08-26T12:57:25.586Z,1.20
2023-08-26T12:59:54.563Z,0.70
2023-08-26T13:02:22.272Z,1.25
2023-08-26T13:04:50.061Z,1.65
2023-08-26T13:07:17.942Z,0.95
2023-08-26T13:09:46.154Z,1.10
2023-08-26T13:12:13.916Z,1.05
2023-08-26T13:14:41.523Z,1.27
2023-08-26T13:17:10.566Z,1.45
2023-08-26T13:19:38.827Z,1.52
2023-08-26T13:22:06.608Z,1.10
2023-08-26T13:24:34.395Z,1.40
2023-08-26T13:27:02.078Z,1.02
2023-08-26T13:29:29.729Z,1.67
2023-08-26T13:31:57.562Z,0.90
2023-08-26T13:34:26.608Z,1.00
2023-08-26T13:36:54.255Z,1.17
2023-08-26T13:39:21.934Z,1.23
2023-08-26T13:41:49.734Z,0.95
2023-08-26T13:44:17.365Z,1.20
2023-08-26T13:46:45.341Z,1.15
2023-08-26T13:49:13.039Z,1.27
2023-08-26T13:51:42.016Z,1.77
2023-08-26T13:54:09.811Z,1.10
2023-08-26T13:56:37.460Z,1.10
2023-08-26T13:59:05.112Z,1.10
2023-08-26T14:01:32.975Z,1.40
2023-08-26T14:04:02.723Z,1.17
2023-08-26T14:06:30.786Z,1.10
2023-08-26T14:08:59.859Z,1.20
2023-08-26T14:11:28.491Z,1.02
2023-08-26T14:13:56.103Z,1.38
2023-08-26T14:16:24.210Z,1.25
2023-08-26T14:18:51.918Z,1.15
2023-08-26T14:21:19.572Z,1.13
2023-08-26T14:23:48.662Z,1.10
2023-08-26T14:26:17.975Z,1.20
2023-08-26T14:28:45.603Z,1.13
2023-08-26T14:31:13.536Z,1.10
2023-08-26T14:33:41.546Z,1.23
2023-08-26T14:36:09.208Z,1.40
2023-08-26T14:38:36.917Z,1.40
2023-08-26T14:41:04.556Z,1.20
2023-08-26T14:43:33.691Z,1.45
2023-08-26T14:46:01.383Z,1.20
2023-08-26T14:48:31.047Z,1.20
2023-08-26T14:50:59.277Z,1.35
2023-08-26T14:53:27.868Z,1.40
2023-08-26T14:55:58.123Z,1.48
2023-08-26T14:58:25.953Z,1.95
2023-08-26T15:00:55.921Z,1.52
2023-08-26T15:03:24.520Z,1.70
2023-08-26T15:05:55.692Z,1.70
2023-08-26T15:08:24.631Z,1.40
2023-08-26T15:10:52.797Z,1.75
2023-08-26T15:13:22.132Z,1.77
2023-08-26T15:15:49.993Z,1.80
2023-08-26T15:18:20.404Z,1.77
2023-08-26T15:20:48.959Z,2.30
2023-08-26T15:23:17.867Z,1.90
2023-08-26T15:25:46.138Z,1.63
2023-08-26T15:28:14.608Z,1.60
2023-08-26T15:30:42.619Z,1.65
2023-08-26T15:33:10.378Z,1.70
2023-08-26T15:35:41.596Z,1.65
2023-08-26T15:38:09.303Z,3.00
2023-08-26T15:40:37.075Z,1.83
2023-08-26T15:43:04.918Z,1.83
2023-08-26T15:45:32.619Z,2.42
2023-08-26T15:48:00.860Z,1.80
2023-08-26T15:50:28.803Z,1.80
2023-08-26T15:52:57.791Z,2.97
2023-08-26T15:55:25.702Z,1.90
2023-08-26T15:57:53.479Z,1.80
2023-08-26T16:00:21.184Z,1.60
2023-08-26T16:03:21.830Z,1.90
2023-08-26T16:05:50.018Z,2.13
2023-08-26T16:08:19.110Z,1.73
2023-08-26T16:10:47.173Z,2.00
2023-08-26T16:13:14.968Z,2.22
2023-08-26T16:15:42.692Z,1.60
2023-08-26T16:18:10.831Z,1.90
2023-08-26T16:20:39.231Z,1.92
2023-08-26T16:23:06.873Z,1.60
2023-08-26T16:25:36.707Z,1.92
2023-08-26T16:28:04.545Z,1.40
2023-08-26T16:30:32.170Z,1.52
2023-08-26T16:33:00.008Z,1.67
2023-08-26T16:35:27.946Z,1.83
2023-08-26T16:37:55.689Z,1.40
2023-08-26T16:40:23.425Z,1.67
2023-08-26T16:42:52.478Z,1.98
2023-08-26T16:45:20.844Z,2.20
2023-08-26T16:47:48.601Z,1.77
2023-08-26T16:50:16.580Z,1.85
2023-08-26T16:52:44.264Z,1.88
2023-08-26T16:55:11.934Z,1.80
2023-08-26T16:57:39.712Z,2.42
2023-08-26T17:00:09.940Z,2.30
2023-08-26T17:02:38.756Z,1.98
2023-08-26T17:05:07.507Z,2.55
2023-08-26T17:07:35.122Z,2.20
2023-08-26T17:10:02.814Z,1.90
2023-08-26T17:12:30.550Z,1.70
2023-08-26T17:14:58.243Z,1.90
2023-08-26T17:17:27.396Z,1.80
2023-08-26T17:20:01.458Z,1.77
2023-08-26T17:22:31.266Z,2.03
2023-08-26T17:25:01.150Z,1.60
2023-08-26T17:27:33.121Z,1.75
2023-08-26T17:30:01.082Z,1.40
2023-08-26T17:32:30.110Z,1.45
2023-08-26T17:34:57.812Z,1.05
2023-08-26T17:37:25.581Z,1.48
2023-08-26T17:39:53.331Z,1.30
2023-08-26T17:42:23.048Z,1.35
2023-08-26T17:44:51.424Z,1.63
2023-08-26T17:47:19.179Z,1.35
2023-08-26T17:49:48.314Z,1.10
2023-08-26T17:52:15.935Z,1.50
2023-08-26T17:54:44.003Z,1.20
2023-08-26T17:57:11.814Z,1.20
2023-08-26T17:59:39.510Z,1.30
2023-08-26T18:02:07.259Z,1.67
2023-08-26T18:04:35.197Z,1.10
2023-08-26T18:07:04.441Z,1.00
2023-08-26T18:09:32.073Z,1.00
2023-08-26T18:12:00.333Z,1.65
2023-08-26T18:14:28.058Z,1.35
2023-08-26T18:16:55.702Z,1.60
2023-08-26T18:19:23.476Z,1.60
2023-08-26T18:21:51.134Z,1.88
2023-08-26T18:24:20.226Z,1.50
2023-08-26T18:26:47.873Z,1.70
2023-08-26T18:29:16.956Z,1.60
2023-08-26T18:31:44.980Z,1.70
2023-08-26T18:34:12.660Z,1.60
2023-08-26T18:36:40.587Z,1.67
2023-08-26T18:39:08.405Z,1.35
2023-08-26T18:41:37.569Z,1.35
2023-08-26T18:44:06.100Z,1.63
2023-08-26T18:46:34.070Z,1.67
2023-08-26T18:49:01.853Z,2.10
2023-08-26T18:51:29.603Z,2.05
2023-08-26T18:53:57.247Z,2.28
2023-08-26T18:56:28.964Z,2.40
2023-08-26T18:58:58.304Z,2.50
2023-08-26T19:01:26.662Z,3.03
2023-08-26T19:03:54.413Z,2.70
2023-08-26T19:06:22.329Z,2.67
2023-08-26T19:08:49.997Z,3.00
2023-08-26T19:11:17.768Z,3.20
2023-08-26T19:13:45.736Z,2.30
2023-08-26T19:16:14.802Z,2.50
2023-08-26T19:18:42.850Z,2.92
2023-08-26T19:21:10.740Z,3.40
2023-08-26T19:23:38.510Z,2.42
2023-08-26T19:26:06.216Z,2.97
2023-08-26T19:28:33.941Z,2.70
2023-08-26T19:31:01.628Z,2.33
2023-08-26T19:33:31.027Z,1.80
2023-08-26T19:35:58.878Z,1.88
2023-08-26T19:38:26.733Z,1.80
2023-08-26T19:40:54.398Z,2.25
2023-08-26T19:43:22.082Z,1.50
2023-08-26T19:45:49.751Z,2.30
2023-08-26T19:48:17.503Z,1.67
2023-08-26T19:50:47.808Z,1.48
2023-08-26T19:53:17.488Z,1.30
2023-08-26T19:55:45.812Z,1.65
2023-08-26T19:58:15.057Z,2.00
2023-08-26T20:00:42.719Z,1.10
2023-08-26T20:03:10.591Z,1.40
2023-08-26T20:05:38.621Z,1.42
2023-08-26T20:08:07.914Z,1.50
2023-08-26T20:10:35.615Z,1.45
2023-08-26T20:13:03.979Z,1.50
2023-08-26T20:15:38.453Z,1.77
2023-08-26T20:18:06.571Z,1.60
2023-08-26T20:20:34.248Z,1.67
2023-08-26T20:23:02.010Z,1.70
2023-08-26T20:25:41.940Z,1.50
2023-08-26T20:28:14.894Z,1.52
2023-08-26T20:30:42.583Z,1.75
2023-08-26T20:33:11.040Z,1.70
2023-08-26T20:35:39.591Z,1.75
2023-08-26T20:38:07.273Z,2.08
2023-08-26T20:40:38.865Z,1.80
2023-08-26T20:43:06.562Z,2.50
2023-08-26T20:45:34.320Z,2.05
2023-08-26T20:48:02.089Z,1.85
2023-08-26T20:50:29.763Z,2.00
2023-08-26T20:52:58.096Z,2.05
2023-08-26T20:55:25.965Z,1.98
2023-08-26T20:57:55.291Z,2.35
2023-08-26T21:00:23.313Z,2.30
2023-08-26T21:02:56.739Z,2.13
2023-08-26T21:05:25.037Z,1.80
2023-08-26T21:07:53.824Z,1.58
2023-08-26T21:10:21.710Z,2.05
2023-08-26T21:12:51.287Z,2.20
2023-08-26T21:15:20.505Z,2.28
2023-08-26T21:17:48.696Z,2.20
2023-08-26T21:20:16.390Z,2.67
2023-08-26T21:22:44.038Z,2.38
2023-08-26T21:25:11.685Z,2.20
2023-08-26T21:27:39.355Z,2.53
2023-08-26T21:30:07.861Z,2.70
2023-08-26T21:32:38.302Z,2.35
2023-08-26T21:35:06.472Z,2.60
2023-08-26T21:37:36.438Z,2.72
2023-08-26T21:40:05.826Z,2.78
2023-08-26T21:42:33.585Z,2.65
2023-08-26T21:45:02.532Z,2.88
2023-08-26T21:47:30.218Z,2.88
2023-08-26T21:49:59.213Z,2.75
2023-08-26T21:52:29.970Z,3.15
2023-08-26T21:54:57.609Z,3.80
2023-08-26T21:57:25.365Z,3.80
2023-08-26T22:00:07.446Z,3.42
2023-08-26T22:02:37.018Z,3.17
2023-08-26T22:05:06.191Z,3.30
2023-08-26T22:07:33.860Z,3.45
2023-08-26T22:10:01.474Z,3.30
2023-08-26T22:12:29.131Z,3.33
2023-08-26T22:14:57.952Z,3.50
2023-08-26T22:17:25.633Z,3.22
2023-08-26T22:19:53.438Z,3.20
2023-08-26T22:22:22.512Z,2.88
2023-08-26T22:24:50.599Z,3.80
2023-08-26T22:27:18.255Z,3.80
2023-08-26T22:29:45.902Z,3.58
2023-08-26T22:32:13.758Z,3.47
2023-08-26T22:34:41.362Z,4.03
2023-08-26T22:37:09.281Z,3.53
2023-08-26T22:39:38.246Z,3.97
2023-08-26T22:42:06.270Z,3.70
2023-08-26T22:44:34.086Z,3.55
2023-08-26T22:47:01.797Z,4.13
2023-08-26T22:49:29.608Z,3.85
2023-08-26T22:51:59.535Z,3.53
2023-08-26T22:54:27.312Z,3.53
2023-08-26T22:56:57.262Z,4.10
2023-08-26T22:59:25.043Z,3.25
2023-08-26T23:01:52.694Z,3.08
2023-08-26T23:04:22.234Z,3.88
2023-08-26T23:06:50.107Z,3.60
2023-08-26T23:09:17.710Z,3.03
2023-08-26T23:11:45.329Z,3.42
2023-08-26T23:14:14.391Z,4.05
2023-08-26T23:16:42.123Z,4.35
2023-08-26T23:19:09.782Z,3.97
2023-08-26T23:21:37.506Z,4.75
2023-08-26T23:24:05.321Z,4.03
2023-08-26T23:26:33.193Z,4.60
2023-08-26T23:29:00.889Z,4.15
2023-08-26T23:31:30.192Z,4.07
2023-08-26T23:34:03.456Z,6.25
2023-08-26T23:36:37.941Z,5.75
2023-08-26T23:39:06.087Z,4.85
2023-08-26T23:41:34.255Z,5.18
2023-08-26T23:44:01.977Z,5.50
2023-08-26T23:46:31.522Z,4.30
2023-08-26T23:48:59.261Z,4.60
2023-08-26T23:51:27.107Z,4.63
2023-08-26T23:53:54.887Z,4.32
2023-08-26T23:56:22.520Z,3.90
2023-08-26T23:58:50.269Z,4.75
